Time;durP1;ratioP1;P1;durP2;ratioP2;P2;SDS_P1;SDS_P2;PMS_P1;PMS_P2;Temp;Humidity;BMP_temperature;BMP_pressure;BME280_temperature;BME280_humidity;BME280_pressure;Samples;Min_cycle;Max_cycle;Signal;HPM_P1;HPM_P2
2022/11/02 00:01:42;;;;;;;6.65;1.42;;;13.80;99.90;;;;;;5063399;28;20535;-81
2022/11/02 00:04:16;;;;;;;6.15;1.27;;;13.80;99.90;;;;;;5067664;28;20025;-81
2022/11/02 00:06:46;;;;;;;7.47;1.70;;;13.80;99.90;;;;;;5068066;28;20038;-82
2022/11/02 00:09:21;;;;;;;6.85;0.95;;;13.90;99.90;;;;;;5066875;28;20048;-81
2022/11/02 00:12:02;;;;;;;9.10;1.23;;;13.90;99.90;;;;;;5062007;28;20025;-82
2022/11/02 00:14:38;;;;;;;8.43;1.40;;;14.00;99.90;;;;;;5058365;28;20025;-80
2022/11/02 00:17:08;;;;;;;5.88;1.33;;;14.00;99.90;;;;;;5102777;28;20031;-80
2022/11/02 00:19:37;;;;;;;8.50;1.50;;;13.90;99.90;;;;;;5089164;28;20044;-80
2022/11/02 00:22:08;;;;;;;6.40;1.27;;;13.70;99.90;;;;;;5083655;28;20051;-81
2022/11/02 00:24:43;;;;;;;9.63;1.50;;;13.70;99.90;;;;;;5064979;28;20055;-80
2022/11/02 00:27:12;;;;;;;7.55;1.92;;;13.70;99.90;;;;;;5063287;28;20056;-81
2022/11/02 00:29:54;;;;;;;7.75;1.45;;;13.50;99.90;;;;;;5061220;28;20023;-79
2022/11/02 00:32:30;;;;;;;6.18;1.20;;;13.20;99.90;;;;;;5067079;28;20060;-80
2022/11/02 00:34:59;;;;;;;6.45;1.40;;;13.00;99.90;;;;;;5054480;28;20025;-80
2022/11/02 00:37:33;;;;;;;5.85;1.23;;;12.80;99.90;;;;;;5060290;28;20037;-80
2022/11/02 00:40:10;;;;;;;4.45;1.10;;;12.70;99.90;;;;;;5052993;28;20465;-79
2022/11/02 00:42:42;;;;;;;5.47;0.90;;;12.60;99.90;;;;;;5053725;28;20025;-80
2022/11/02 00:45:22;;;;;;;7.95;1.17;;;12.50;99.90;;;;;;5061793;28;20098;-78
2022/11/02 00:47:55;;;;;;;7.30;1.95;;;12.50;99.90;;;;;;5081200;28;20490;-78
2022/11/02 00:50:22;;;;;;;5.32;1.00;;;12.50;99.90;;;;;;5068668;28;20024;-79
2022/11/02 00:52:51;;;;;;;4.95;1.20;;;12.50;99.90;;;;;;5068680;28;20021;-80
2022/11/02 00:55:28;;;;;;;6.57;1.48;;;12.50;99.90;;;;;;5068524;28;20028;-80
2022/11/02 00:57:57;;;;;;;5.30;1.05;;;12.50;99.90;;;;;;5066693;28;20047;-80
2022/11/02 01:00:27;;;;;;;5.07;1.45;;;12.50;99.90;;;;;;5062538;28;20054;-80
2022/11/02 01:03:00;;;;;;;4.47;0.90;;;12.50;99.90;;;;;;5071685;28;20035;-80
2022/11/02 01:05:31;;;;;;;2.90;0.80;;;12.40;99.90;;;;;;5074804;28;20024;-80
2022/11/02 01:08:05;;;;;;;3.95;0.95;;;12.50;99.90;;;;;;5067472;28;20028;-79
2022/11/02 01:10:35;;;;;;;5.32;1.02;;;12.50;99.90;;;;;;5047259;28;20054;-79
2022/11/02 01:13:04;;;;;;;4.25;1.00;;;12.50;99.90;;;;;;5067596;28;20038;-79
2022/11/02 01:15:35;;;;;;;6.97;1.67;;;12.60;99.90;;;;;;5055974;28;20426;-80
2022/11/02 01:18:05;;;;;;;5.20;1.00;;;12.60;99.90;;;;;;5074064;28;20012;-79
2022/11/02 01:20:40;;;;;;;3.78;1.38;;;12.70;99.90;;;;;;5062422;28;20024;-79
2022/11/02 01:23:11;;;;;;;5.05;1.15;;;12.70;99.90;;;;;;5059964;28;20530;-80
2022/11/02 01:25:43;;;;;;;4.97;0.70;;;12.70;99.90;;;;;;5064335;28;20035;-80
2022/11/02 01:28:15;;;;;;;4.53;0.85;;;12.70;99.90;;;;;;5071252;28;20052;-79
2022/11/02 01:30:45;;;;;;;6.18;1.55;;;12.70;99.90;;;;;;5055362;28;20130;-79
2022/11/02 01:33:24;;;;;;;5.50;0.90;;;12.60;99.90;;;;;;5055060;28;20025;-79
2022/11/02 01:35:53;;;;;;;5.35;1.13;;;12.70;99.90;;;;;;5085977;28;20469;-80
2022/11/02 01:38:19;;;;;;;5.25;0.70;;;12.70;99.90;;;;;;5079285;28;20027;-79
2022/11/02 01:40:50;;;;;;;4.32;0.70;;;12.70;99.90;;;;;;5078638;28;20028;-81
2022/11/02 01:43:32;;;;;;;4.07;0.93;;;12.80;99.90;;;;;;5055100;28;20159;-80
2022/11/02 01:46:12;;;;;;;8.15;1.48;;;12.80;99.90;;;;;;5053982;28;20048;-79
2022/11/02 01:48:54;;;;;;;7.32;1.17;;;12.80;99.90;;;;;;5062112;28;20521;-80
2022/11/02 01:51:34;;;;;;;4.75;0.90;;;12.90;99.90;;;;;;5063136;28;20040;-80
2022/11/02 01:54:14;;;;;;;5.32;0.98;;;12.70;99.90;;;;;;5061293;28;20014;-80
2022/11/02 01:56:42;;;;;;;3.55;0.65;;;12.60;99.90;;;;;;5063889;28;20058;-78
2022/11/02 01:59:19;;;;;;;6.18;0.90;;;12.30;99.90;;;;;;5055785;28;20024;-79
2022/11/02 02:01:46;;;;;;;2.45;0.50;;;12.10;99.90;;;;;;5068496;28;20169;-79
2022/11/02 02:04:17;;;;;;;3.67;0.52;;;12.00;99.90;;;;;;5075989;28;20020;-80
2022/11/02 02:06:43;;;;;;;3.95;0.45;;;11.90;99.90;;;;;;5075715;28;20032;-78
2022/11/02 02:09:13;;;;;;;5.88;0.57;;;11.80;99.90;;;;;;5083054;28;20068;-78
2022/11/02 02:11:47;;;;;;;4.45;0.70;;;11.80;99.90;;;;;;5097371;28;20017;-80
2022/11/02 02:14:21;;;;;;;4.35;0.70;;;11.80;99.90;;;;;;5077763;28;20057;-79
2022/11/02 02:17:08;;;;;;;2.80;0.43;;;11.70;99.90;;;;;;5057448;28;20028;-78
2022/11/02 02:19:54;;;;;;;5.18;0.70;;;11.70;99.90;;;;;;5059684;28;20463;-79
2022/11/02 02:22:57;;;;;;;1.67;0.35;;;11.70;99.90;;;;;;5060784;28;20134;-79
2022/11/02 02:25:48;;;;;;;2.17;0.40;;;11.70;99.90;;;;;;5055850;28;20060;-78
2022/11/02 02:28:59;;;;;;;3.28;0.50;;;11.70;99.90;;;;;;5061824;28;20040;-81
2022/11/02 02:31:48;;;;;;;2.08;0.40;;;11.70;99.90;;;;;;5051828;28;20033;-79
2022/11/02 02:34:25;;;;;;;7.22;1.42;;;11.70;99.90;;;;;;5062956;28;20116;-79
2022/11/02 02:37:14;;;;;;;1.50;0.38;;;11.70;99.90;;;;;;5054601;28;20421;-79
2022/11/02 02:39:52;;;;;;;3.42;0.50;;;11.60;99.90;;;;;;5054602;28;20025;-79
2022/11/02 02:42:24;;;;;;;3.08;0.40;;;11.60;99.90;;;;;;5059513;28;20079;-79
2022/11/02 02:45:03;;;;;;;2.35;0.47;;;11.50;99.90;;;;;;5056323;28;20055;-79
2022/11/02 02:47:43;;;;;;;2.75;0.40;;;11.50;99.90;;;;;;5054260;28;20063;-79
2022/11/02 02:50:26;;;;;;;2.58;0.30;;;11.40;99.90;;;;;;5068267;28;20465;-79
2022/11/02 02:52:53;;;;;;;4.47;0.93;;;11.40;99.90;;;;;;5068759;28;20020;-79
2022/11/02 02:55:32;;;;;;;2.58;0.50;;;11.30;99.90;;;;;;5059085;28;20061;-79
2022/11/02 02:58:01;;;;;;;3.30;0.50;;;11.30;99.90;;;;;;5044380;28;20460;-79
2022/11/02 03:00:35;;;;;;;2.55;0.50;;;11.30;99.90;;;;;;5056766;28;20036;-79
2022/11/02 03:03:03;;;;;;;3.85;0.50;;;11.40;99.90;;;;;;5065437;28;20074;-79
2022/11/02 03:05:35;;;;;;;2.88;0.65;;;11.40;99.90;;;;;;5068910;28;20038;-79
2022/11/02 03:08:08;;;;;;;4.25;0.80;;;11.40;99.90;;;;;;5062415;28;20082;-79
2022/11/02 03:10:43;;;;;;;3.47;1.02;;;11.40;99.90;;;;;;5060577;28;20044;-79
2022/11/02 03:13:32;;;;;;;4.80;0.80;;;11.40;99.90;;;;;;5071902;28;20082;-80
2022/11/02 03:16:06;;;;;;;4.32;0.73;;;11.50;99.90;;;;;;5054066;28;20029;-79
2022/11/02 03:18:49;;;;;;;4.32;0.90;;;11.60;99.90;;;;;;5073327;28;20024;-79
2022/11/02 03:21:32;;;;;;;6.03;1.20;;;11.70;99.90;;;;;;5059266;28;20065;-80
2022/11/02 03:24:01;;;;;;;6.68;1.10;;;11.70;99.90;;;;;;5074904;28;20455;-79
2022/11/02 03:26:44;;;;;;;6.25;1.00;;;11.90;99.90;;;;;;5055623;28;20452;-79
2022/11/02 03:29:17;;;;;;;6.70;1.20;;;12.00;99.90;;;;;;5053631;28;20376;-79
2022/11/02 03:32:18;;;;;;;7.68;1.40;;;12.00;99.90;;;;;;5060413;28;20035;-79
2022/11/02 03:34:50;;;;;;;2.88;0.80;;;11.90;99.90;;;;;;5034786;28;20607;-79
2022/11/02 03:37:40;;;;;;;4.70;1.17;;;11.80;99.90;;;;;;5054361;28;20029;-80
2022/11/02 03:40:23;;;;;;;5.28;1.50;;;11.70;99.90;;;;;;5053402;28;20025;-80
2022/11/02 03:42:51;;;;;;;8.13;1.20;;;11.70;99.90;;;;;;5054500;28;20449;-79
2022/11/02 03:45:24;;;;;;;4.75;0.82;;;11.70;99.90;;;;;;5062561;28;20469;-79
2022/11/02 03:47:59;;;;;;;6.20;1.30;;;11.70;99.90;;;;;;5062489;28;20012;-80
2022/11/02 03:50:28;;;;;;;4.95;0.98;;;11.70;99.90;;;;;;5075881;28;20028;-79
2022/11/02 03:53:00;;;;;;;6.65;1.35;;;11.70;99.90;;;;;;5056741;28;20055;-79
2022/11/02 03:55:36;;;;;;;7.13;1.40;;;11.80;99.90;;;;;;5074181;28;20051;-80
2022/11/02 03:58:05;;;;;;;5.38;1.13;;;11.80;99.90;;;;;;5069870;28;20055;-80
2022/11/02 04:00:44;;;;;;;7.75;1.00;;;11.80;99.90;;;;;;5061697;28;20008;-78
2022/11/02 04:03:15;;;;;;;7.82;1.48;;;11.80;99.90;;;;;;5080391;28;20012;-79
2022/11/02 04:05:50;;;;;;;8.13;1.48;;;11.80;99.90;;;;;;5106096;28;20020;-80
2022/11/02 04:08:31;;;;;;;7.05;1.13;;;11.80;99.90;;;;;;5083609;28;20486;-80
2022/11/02 04:16:38;;;;;;;;;;;11.90;99.90;;;;;;5075281;28;20055;-79
2022/11/02 04:19:27;;;;;;;8.68;1.85;;;11.90;99.90;;;;;;5057462;28;20282;-79
2022/11/02 04:27:32;;;;;;;7.07;1.08;;;12.00;99.90;;;;;;5074450;28;20035;-79
2022/11/02 04:30:01;;;;;;;8.35;1.52;;;11.90;99.90;;;;;;5073900;28;20103;-79
2022/11/02 04:35:13;;;;;;;7.78;1.70;;;12.00;99.90;;;;;;5073950;28;20388;-80
2022/11/02 04:40:38;;;;;;;10.98;1.60;;;12.10;99.90;;;;;;5086517;28;20039;-78
2022/11/02 04:43:17;;;;;;;8.95;1.17;;;12.20;99.90;;;;;;5075739;28;20030;-79
2022/11/02 04:45:48;;;;;;;6.60;1.45;;;12.30;99.90;;;;;;5072834;28;20147;-79
2022/11/02 04:48:17;;;;;;;6.88;1.25;;;12.40;99.90;;;;;;5073481;28;20345;-79
2022/11/02 04:50:43;;;;;;;12.75;1.98;;;12.50;99.90;;;;;;5055809;28;20020;-81
2022/11/02 04:53:09;;;;;;;11.52;1.60;;;12.50;99.90;;;;;;5055408;28;20380;-79
2022/11/02 04:55:35;;;;;;;8.30;1.40;;;12.60;99.90;;;;;;5072000;28;20479;-79
2022/11/02 04:58:01;;;;;;;8.57;1.77;;;12.50;99.90;;;;;;5065702;28;20034;-79
2022/11/02 05:00:27;;;;;;;10.25;1.60;;;12.50;99.90;;;;;;5073597;28;20399;-79
2022/11/02 05:02:53;;;;;;;8.55;1.90;;;12.40;99.90;;;;;;5055397;28;20029;-81
2022/11/02 05:05:19;;;;;;;8.43;2.20;;;12.40;99.90;;;;;;5058353;28;20020;-79
2022/11/02 05:07:45;;;;;;;5.88;1.40;;;12.40;99.90;;;;;;5075422;28;20039;-80
2022/11/02 05:10:12;;;;;;;8.23;1.75;;;12.50;99.90;;;;;;5071467;28;20020;-79
2022/11/02 05:12:39;;;;;;;9.65;1.92;;;12.50;99.90;;;;;;5065262;28;20024;-79
2022/11/02 05:15:06;;;;;;;9.82;1.88;;;12.60;99.90;;;;;;5058015;28;20028;-80
2022/11/02 05:17:32;;;;;;;5.72;1.20;;;12.50;99.90;;;;;;5056083;28;20380;-80
2022/11/02 05:19:58;;;;;;;8.75;1.63;;;12.60;99.90;;;;;;5068693;28;20020;-80
2022/11/02 05:22:24;;;;;;;8.45;1.75;;;12.60;99.90;;;;;;5057674;28;20043;-80
2022/11/02 05:24:50;;;;;;;13.23;1.70;;;12.60;99.90;;;;;;5081756;28;20459;-79
2022/11/02 05:27:16;;;;;;;7.00;1.40;;;12.60;99.90;;;;;;5069047;28;20086;-80
2022/11/02 05:29:47;;;;;;;9.10;1.73;;;12.60;99.90;;;;;;5075875;28;20020;-79
2022/11/02 05:32:19;;;;;;;9.55;1.67;;;12.60;99.90;;;;;;5067719;28;20391;-79
2022/11/02 05:34:48;;;;;;;7.68;1.48;;;12.60;99.90;;;;;;5063970;28;20031;-80
2022/11/02 05:37:18;;;;;;;9.05;2.05;;;12.60;99.90;;;;;;5084764;28;20486;-79
2022/11/02 05:39:49;;;;;;;8.82;1.70;;;12.60;99.90;;;;;;5064706;28;20031;-79
2022/11/02 05:42:18;;;;;;;9.82;1.98;;;12.60;99.90;;;;;;5095552;28;20392;-79
2022/11/02 05:44:47;;;;;;;11.52;2.60;;;12.60;99.90;;;;;;5089906;28;20036;-79
2022/11/02 05:47:19;;;;;;;9.27;1.63;;;12.60;99.90;;;;;;5090677;28;20040;-80
2022/11/02 05:50:27;;;;;;;11.10;2.00;;;12.60;99.90;;;;;;5086251;28;20083;-79
2022/11/02 05:52:53;;;;;;;6.20;1.50;;;12.60;99.90;;;;;;5090386;28;20027;-79
2022/11/02 05:55:23;;;;;;;10.15;1.90;;;12.70;99.90;;;;;;5118120;28;20036;-79
2022/11/02 05:57:59;;;;;;;6.28;1.30;;;12.70;99.90;;;;;;5069014;28;20086;-79
2022/11/02 06:00:42;;;;;;;10.20;1.73;;;12.60;99.90;;;;;;5091999;28;20461;-79
2022/11/02 06:03:11;;;;;;;12.23;1.80;;;12.60;99.90;;;;;;5071876;28;20189;-80
2022/11/02 06:05:40;;;;;;;9.82;1.85;;;12.50;99.90;;;;;;5059999;28;20029;-79
2022/11/02 06:08:12;;;;;;;8.60;1.50;;;12.50;99.90;;;;;;5072592;28;20028;-78
2022/11/02 06:10:42;;;;;;;8.50;1.90;;;12.50;99.90;;;;;;5066364;28;20047;-78
2022/11/02 06:13:10;;;;;;;8.27;1.50;;;12.50;99.90;;;;;;5065118;28;20379;-79
2022/11/02 06:15:39;;;;;;;9.93;2.30;;;12.60;99.90;;;;;;5077037;28;20403;-79
2022/11/02 06:18:06;;;;;;;9.10;2.00;;;12.50;99.90;;;;;;5077632;28;20400;-79
2022/11/02 06:20:33;;;;;;;7.28;2.25;;;12.60;99.90;;;;;;5078427;28;20027;-79
2022/11/02 06:23:01;;;;;;;10.00;2.15;;;12.60;99.90;;;;;;5063343;28;20115;-79
2022/11/02 06:25:27;;;;;;;9.85;2.22;;;12.60;99.90;;;;;;5084510;28;20110;-79
2022/11/02 06:27:56;;;;;;;7.50;1.75;;;12.50;99.90;;;;;;5075288;28;20028;-80
2022/11/02 06:30:26;;;;;;;13.60;2.20;;;12.50;99.90;;;;;;5066196;28;20029;-81
2022/11/02 06:32:56;;;;;;;7.55;1.35;;;12.50;99.90;;;;;;5058246;28;20044;-80
2022/11/02 06:35:24;;;;;;;9.68;1.70;;;12.40;99.90;;;;;;5076157;28;20480;-79
2022/11/02 06:37:51;;;;;;;12.20;1.77;;;12.40;99.90;;;;;;5075766;28;20020;-81
2022/11/02 06:40:18;;;;;;;14.18;1.98;;;12.40;99.90;;;;;;5075971;28;20025;-79
2022/11/02 06:42:44;;;;;;;8.90;1.33;;;12.40;99.90;;;;;;5075115;28;20478;-80
2022/11/02 06:45:10;;;;;;;5.95;1.67;;;12.40;99.90;;;;;;5066765;28;20028;-80
2022/11/02 06:47:37;;;;;;;12.25;2.38;;;12.30;99.90;;;;;;5057845;28;20025;-80
2022/11/02 06:50:05;;;;;;;10.30;2.17;;;12.30;99.90;;;;;;5057268;28;20052;-81
2022/11/02 06:52:31;;;;;;;12.95;1.50;;;12.30;99.90;;;;;;5074518;28;20028;-80
2022/11/02 06:55:02;;;;;;;9.95;1.55;;;12.20;99.90;;;;;;5083920;28;20568;-80
2022/11/02 06:57:35;;;;;;;8.90;1.92;;;12.10;99.90;;;;;;5072510;28;20036;-80
2022/11/02 07:00:20;;;;;;;10.30;1.48;;;12.10;99.90;;;;;;5070855;28;20069;-80
2022/11/02 07:02:57;;;;;;;7.13;1.30;;;12.00;99.90;;;;;;5057826;28;20536;-80
2022/11/02 07:05:23;;;;;;;9.90;1.55;;;11.90;99.90;;;;;;5088023;28;20070;-80
2022/11/02 07:07:54;;;;;;;6.35;1.33;;;11.90;99.90;;;;;;5075232;28;20538;-80
2022/11/02 07:10:23;;;;;;;4.38;1.13;;;11.80;99.90;;;;;;5057720;28;20460;-80
2022/11/02 07:12:54;;;;;;;9.63;1.25;;;11.80;99.90;;;;;;5086739;28;20027;-79
2022/11/02 07:15:21;;;;;;;10.02;1.95;;;11.80;99.90;;;;;;5062559;28;20115;-80
2022/11/02 07:17:47;;;;;;;9.68;1.45;;;11.80;99.90;;;;;;5064137;28;20517;-80
2022/11/02 07:20:14;;;;;;;10.93;1.70;;;11.70;99.90;;;;;;5055995;28;20086;-80
2022/11/02 07:22:41;;;;;;;9.25;1.55;;;11.80;99.90;;;;;;5069448;28;20085;-80
2022/11/02 07:25:07;;;;;;;12.50;1.80;;;11.80;99.90;;;;;;5073875;28;20020;-80
2022/11/02 07:27:40;;;;;;;9.43;1.63;;;11.80;99.90;;;;;;5063578;28;20116;-80
2022/11/02 07:30:07;;;;;;;7.20;1.00;;;11.80;99.90;;;;;;5080086;28;20020;-80
2022/11/02 07:32:41;;;;;;;8.48;1.33;;;11.80;99.90;;;;;;5057123;28;20022;-82
2022/11/02 07:35:11;;;;;;;10.02;1.90;;;11.90;99.90;;;;;;5075251;28;20054;-80
2022/11/02 07:37:40;;;;;;;11.35;2.10;;;12.00;99.90;;;;;;5065580;28;20020;-80
2022/11/02 07:40:15;;;;;;;9.95;2.55;;;12.00;99.90;;;;;;5084986;28;20573;-80
2022/11/02 07:42:48;;;;;;;8.40;1.58;;;12.10;99.90;;;;;;5069089;28;20024;-82
2022/11/02 07:45:13;;;;;;;5.32;1.40;;;12.10;99.90;;;;;;5087211;28;20455;-81
2022/11/02 07:47:53;;;;;;;5.75;1.30;;;12.10;99.90;;;;;;5090008;28;20020;-80
2022/11/02 07:50:23;;;;;;;11.52;1.90;;;12.20;99.90;;;;;;5076157;28;20035;-80
2022/11/02 07:53:06;;;;;;;7.30;1.50;;;12.10;99.90;;;;;;5087679;28;20084;-81
2022/11/02 07:55:38;;;;;;;7.68;1.40;;;12.10;99.90;;;;;;5096096;28;20109;-81
2022/11/02 07:58:08;;;;;;;9.18;1.83;;;12.10;99.90;;;;;;5077743;28;20027;-80
2022/11/02 08:00:39;;;;;;;7.47;2.08;;;12.10;99.90;;;;;;5072056;28;20028;-80
2022/11/02 08:03:15;;;;;;;9.77;2.20;;;12.20;99.90;;;;;;5062332;28;20031;-81
2022/11/02 08:05:48;;;;;;;9.27;1.92;;;12.20;99.90;;;;;;5064757;28;20361;-82
2022/11/02 08:08:20;;;;;;;7.28;1.00;;;12.30;99.90;;;;;;5067135;28;20017;-79
2022/11/02 08:10:50;;;;;;;9.98;1.48;;;12.50;99.90;;;;;;5064896;28;20479;-80
2022/11/02 08:13:24;;;;;;;8.57;1.50;;;12.60;99.90;;;;;;5061207;28;20023;-82
2022/11/02 08:15:57;;;;;;;9.90;1.73;;;12.80;99.90;;;;;;5063488;28;20028;-81
2022/11/02 08:18:31;;;;;;;5.55;1.08;;;12.90;99.90;;;;;;5061240;28;20082;-80
2022/11/02 08:20:58;;;;;;;6.20;1.35;;;13.00;99.90;;;;;;5076512;28;20495;-81
2022/11/02 08:23:31;;;;;;;10.52;1.42;;;13.00;99.90;;;;;;5063497;28;20012;-80
2022/11/02 08:26:00;;;;;;;10.20;1.50;;;13.00;99.90;;;;;;5081420;28;20040;-81
2022/11/02 08:28:39;;;;;;;9.95;1.58;;;13.00;99.90;;;;;;5056600;28;20326;-80
2022/11/02 08:31:19;;;;;;;9.10;1.60;;;13.10;99.90;;;;;;5076099;28;20107;-81
2022/11/02 08:33:52;;;;;;;8.88;1.40;;;13.20;99.90;;;;;;5070333;28;20088;-80
2022/11/02 08:36:22;;;;;;;6.93;1.52;;;13.30;99.90;;;;;;5052427;28;20484;-81
2022/11/02 08:38:53;;;;;;;10.60;2.10;;;13.30;99.90;;;;;;5066567;28;20054;-81
2022/11/02 08:41:29;;;;;;;7.15;1.90;;;13.30;99.90;;;;;;5066743;28;20123;-79
2022/11/02 08:43:58;;;;;;;5.55;1.65;;;13.30;99.90;;;;;;5077947;28;20050;-80
2022/11/02 08:46:28;;;;;;;11.80;1.85;;;13.20;99.90;;;;;;5069416;28;20527;-80
2022/11/02 08:48:56;;;;;;;13.02;2.13;;;13.20;99.90;;;;;;5055721;28;20021;-81
2022/11/02 08:51:23;;;;;;;8.98;1.80;;;13.20;99.90;;;;;;5065864;28;20029;-79
2022/11/02 08:53:53;;;;;;;8.55;1.30;;;13.40;99.90;;;;;;5060512;28;20094;-79
2022/11/02 08:56:20;;;;;;;10.52;1.92;;;14.20;99.90;;;;;;5063246;28;20059;-82
2022/11/02 08:58:46;;;;;;;8.93;1.67;;;15.40;99.90;;;;;;5067903;28;20070;-80
2022/11/02 09:01:15;;;;;;;8.70;2.08;;;15.90;99.90;;;;;;5053405;28;20029;-80
2022/11/02 09:03:44;;;;;;;6.90;1.33;;;16.00;99.90;;;;;;5052984;28;20047;-80
2022/11/02 09:06:09;;;;;;;6.28;1.45;;;16.50;99.90;;;;;;5061974;28;20078;-80
2022/11/02 09:08:35;;;;;;;6.80;1.63;;;17.30;99.90;;;;;;5063163;28;20116;-80
2022/11/02 09:11:05;;;;;;;5.78;1.02;;;18.00;99.90;;;;;;5072169;28;20020;-80
2022/11/02 09:13:31;;;;;;;7.13;1.50;;;18.40;99.90;;;;;;5071491;28;20024;-81
2022/11/02 09:15:58;;;;;;;6.47;1.70;;;18.90;99.90;;;;;;5053738;28;20036;-81
2022/11/02 09:18:24;;;;;;;4.68;1.20;;;19.50;99.90;;;;;;5055720;28;20059;-81
2022/11/02 09:20:53;;;;;;;5.88;1.42;;;19.70;99.90;;;;;;5064172;28;20052;-81
2022/11/02 09:23:25;;;;;;;7.25;1.20;;;19.90;99.90;;;;;;5051336;28;20068;-82
2022/11/02 09:25:52;;;;;;;6.18;1.30;;;20.10;99.90;;;;;;5061477;28;20020;-81
2022/11/02 09:28:24;;;;;;;7.88;1.75;;;20.30;99.90;;;;;;5047037;28;20041;-81
2022/11/02 09:30:50;;;;;;;6.60;1.50;;;20.40;99.90;;;;;;5062254;28;20031;-80
2022/11/02 09:33:17;;;;;;;6.25;1.50;;;20.70;99.90;;;;;;5055230;28;20040;-83
2022/11/02 09:35:50;;;;;;;4.97;1.38;;;21.00;99.90;;;;;;5055637;28;20542;-81
2022/11/02 09:38:17;;;;;;;5.32;1.23;;;20.90;99.90;;;;;;5053478;28;20486;-81
2022/11/02 09:41:04;;;;;;;6.88;1.40;;;20.90;99.90;;;;;;5056951;28;20029;-82
2022/11/02 09:43:54;;;;;;;8.43;2.00;;;21.10;99.90;;;;;;5061096;28;20373;-81
2022/11/02 09:46:30;;;;;;;7.18;1.45;;;20.90;99.90;;;;;;5056983;28;20060;-80
2022/11/02 09:49:29;;;;;;;6.63;1.38;;;21.00;99.90;;;;;;5056605;28;20025;-80
2022/11/02 09:51:57;;;;;;;5.28;1.50;;;21.20;99.90;;;;;;5067140;28;20216;-80
2022/11/02 09:54:49;;;;;;;7.65;1.40;;;20.80;99.90;;;;;;5076875;28;20025;-81
2022/11/02 09:57:49;;;;;;;6.03;1.73;;;20.90;99.90;;;;;;5062361;28;20024;-80
2022/11/02 10:00:17;;;;;;;5.63;1.10;;;20.90;99.90;;;;;;5015405;28;20068;-82
2022/11/02 10:03:04;;;;;;;7.75;1.35;;;20.70;99.90;;;;;;5058291;28;20052;-80
2022/11/02 10:05:45;;;;;;;4.53;0.85;;;20.30;99.90;;;;;;5058652;28;20033;-80
2022/11/02 10:08:33;;;;;;;8.50;1.60;;;20.40;99.90;;;;;;5061052;28;20021;-81
2022/11/02 10:11:38;;;;;;;5.45;1.65;;;20.80;99.90;;;;;;5052979;28;20048;-81
2022/11/02 10:14:19;;;;;;;9.32;1.60;;;20.30;99.90;;;;;;5064562;28;20451;-80
2022/11/02 10:16:57;;;;;;;5.07;1.27;;;20.30;99.90;;;;;;5062111;28;20035;-81
2022/11/02 10:19:24;;;;;;;8.80;1.45;;;21.00;99.90;;;;;;5066665;28;20027;-82
2022/11/02 10:21:55;;;;;;;6.28;1.88;;;21.20;99.90;;;;;;5061249;28;20021;-80
2022/11/02 10:24:31;;;;;;;5.63;1.42;;;21.40;99.90;;;;;;5053072;28;20037;-81
2022/11/02 10:27:01;;;;;;;6.00;1.20;;;21.70;99.90;;;;;;5062896;28;20392;-81
2022/11/02 10:29:46;;;;;;;6.32;1.52;;;22.20;99.90;;;;;;5058130;28;20025;-81
2022/11/02 10:32:13;;;;;;;4.72;1.10;;;22.40;99.90;;;;;;5066571;28;20036;-80
2022/11/02 10:34:40;;;;;;;7.20;1.40;;;22.60;99.90;;;;;;5060241;28;20024;-81
2022/11/02 10:37:21;;;;;;;5.13;1.55;;;22.40;99.90;;;;;;5048108;28;20032;-81
2022/11/02 10:40:17;;;;;;;4.22;1.25;;;22.20;99.90;;;;;;5062508;28;20070;-81
2022/11/02 10:43:16;;;;;;;5.72;1.50;;;22.60;99.90;;;;;;5056314;28;20098;-81
2022/11/02 10:46:09;;;;;;;6.22;1.33;;;22.80;99.90;;;;;;5053339;28;20032;-81
2022/11/02 10:48:38;;;;;;;4.53;1.30;;;23.20;99.80;;;;;;5064307;28;20016;-81
2022/11/02 10:51:16;;;;;;;6.28;1.35;;;23.10;99.20;;;;;;5063250;28;20388;-81
2022/11/02 10:53:46;;;;;;;6.82;1.70;;;22.80;99.20;;;;;;5050485;28;20043;-83
2022/11/02 10:56:23;;;;;;;6.80;1.42;;;22.30;99.20;;;;;;5066700;28;20028;-81
2022/11/02 10:59:16;;;;;;;7.78;1.50;;;21.50;99.60;;;;;;5078915;28;20028;-81
2022/11/02 11:01:47;;;;;;;;;;;21.80;99.90;;;;;;5078435;28;20044;-80
2022/11/02 11:04:30;;;;;;;7.35;1.70;;;21.70;99.90;;;;;;5067243;28;19916;-81
2022/11/02 11:07:02;;;;;;;8.27;1.92;;;21.60;99.90;;;;;;5080651;28;20024;-81
2022/11/02 11:09:44;;;;;;;7.07;1.60;;;21.60;99.90;;;;;;5080449;28;20024;-81
2022/11/02 11:12:35;;;;;;;6.68;1.38;;;21.40;99.90;;;;;;5070167;28;20718;-82
2022/11/02 11:15:05;;;;;;;8.45;1.52;;;21.70;99.90;;;;;;5060685;28;20449;-80
2022/11/02 11:17:36;;;;;;;6.65;1.40;;;21.70;99.90;;;;;;5051104;28;20024;-79
2022/11/02 11:20:04;;;;;;;7.30;1.60;;;21.90;99.90;;;;;;5055562;28;20024;-80
2022/11/02 11:22:38;;;;;;;8.02;1.80;;;22.00;99.90;;;;;;5059157;28;20028;-81
2022/11/02 11:25:25;;;;;;;8.55;2.05;;;21.20;99.90;;;;;;5062638;28;20571;-80
2022/11/02 11:27:57;;;;;;;6.97;1.85;;;20.60;99.90;;;;;;5083970;28;20024;-81
2022/11/02 11:30:22;;;;;;;7.30;1.95;;;20.50;99.90;;;;;;5070314;28;20032;-80
2022/11/02 11:32:49;;;;;;;8.02;1.98;;;20.80;99.90;;;;;;5075796;28;20044;-83
2022/11/02 11:35:18;;;;;;;9.98;2.13;;;21.10;99.90;;;;;;5059833;28;20035;-81
2022/11/02 11:37:56;;;;;;;7.43;1.40;;;21.30;99.90;;;;;;5058370;28;20024;-81
2022/11/02 11:40:22;;;;;;;6.70;2.00;;;22.10;99.90;;;;;;5062616;28;20036;-80
2022/11/02 11:42:52;;;;;;;6.63;1.73;;;22.70;99.60;;;;;;5073128;28;20056;-80
2022/11/02 11:45:31;;;;;;;8.18;1.85;;;23.20;99.80;;;;;;5076779;28;20156;-81
2022/11/02 11:48:25;;;;;;;7.13;1.55;;;23.40;98.10;;;;;;5041040;28;20121;-81
2022/11/02 11:50:51;;;;;;;4.93;1.23;;;23.40;98.50;;;;;;5009637;28;20096;-81
2022/11/02 11:53:25;;;;;;;6.78;1.70;;;23.50;98.30;;;;;;5031253;28;20128;-83
2022/11/02 11:55:54;;;;;;;8.75;2.10;;;22.80;97.70;;;;;;5067360;28;20016;-80
2022/11/02 11:58:24;;;;;;;5.25;1.40;;;21.80;97.60;;;;;;5051829;28;20028;-80
2022/11/02 12:01:11;;;;;;;6.78;1.65;;;20.60;98.90;;;;;;5045294;28;20021;-80
2022/11/02 12:04:01;;;;;;;5.90;1.50;;;19.50;99.90;;;;;;5030921;28;20026;-81
2022/11/02 12:07:11;;;;;;;6.85;1.50;;;19.30;99.90;;;;;;5042056;28;20037;-81
2022/11/02 12:09:52;;;;;;;5.05;1.42;;;20.50;99.90;;;;;;5031763;28;20037;-81
2022/11/02 12:12:41;;;;;;;8.45;1.85;;;21.60;99.90;;;;;;5023426;28;20068;-82
2022/11/02 12:15:20;;;;;;;7.60;1.77;;;22.20;99.30;;;;;;5045420;28;20087;-81
2022/11/02 12:18:15;;;;;;;4.60;1.45;;;21.90;99.60;;;;;;5045580;28;20213;-81
2022/11/02 12:21:06;;;;;;;4.70;1.50;;;22.30;99.30;;;;;;5042166;28;20040;-80
2022/11/02 12:24:06;;;;;;;5.35;1.42;;;22.80;99.40;;;;;;5032585;28;20025;-81
2022/11/02 12:26:35;;;;;;;6.50;1.40;;;23.20;99.00;;;;;;5043156;28;20037;-81
2022/11/02 12:29:19;;;;;;;5.38;1.30;;;23.30;97.30;;;;;;5036901;28;20038;-81
2022/11/02 12:31:56;;;;;;;4.82;1.52;;;23.30;97.90;;;;;;5036492;28;20029;-81
2022/11/02 12:34:30;;;;;;;7.70;1.40;;;23.60;97.80;;;;;;5028143;28;20360;-83
2022/11/02 12:37:16;;;;;;;6.68;1.65;;;23.90;97.00;;;;;;5046077;28;20029;-81
2022/11/02 12:40:09;;;;;;;8.35;2.10;;;23.60;96.20;;;;;;5040110;28;20033;-81
2022/11/02 12:42:43;;;;;;;7.90;1.52;;;23.40;95.20;;;;;;5039129;28;20112;-83
2022/11/02 12:45:37;;;;;;;4.65;1.05;;;23.30;96.30;;;;;;5030394;28;20362;-80
2022/11/02 12:48:05;;;;;;;8.13;1.40;;;23.20;96.60;;;;;;5037943;28;20583;-81
2022/11/02 12:50:56;;;;;;;4.45;1.35;;;22.80;97.10;;;;;;5044611;28;20143;-81
2022/11/02 12:53:44;;;;;;;4.32;1.10;;;22.50;96.90;;;;;;5041214;28;20021;-81
2022/11/02 12:56:21;;;;;;;2.70;0.90;;;22.90;97.50;;;;;;5042634;28;20040;-81
2022/11/02 12:58:50;;;;;;;3.72;1.23;;;23.50;97.40;;;;;;5039993;28;20060;-81
2022/11/02 13:01:39;;;;;;;5.93;1.65;;;24.20;97.40;;;;;;5038293;28;20428;-81
2022/11/02 13:04:15;;;;;;;5.97;1.23;;;24.60;96.90;;;;;;5044460;28;20045;-81
2022/11/02 13:06:45;;;;;;;4.95;1.33;;;24.80;96.60;;;;;;5043934;28;20029;-81
2022/11/02 13:09:31;;;;;;;4.93;1.55;;;24.90;96.60;;;;;;5042112;28;20033;-81
2022/11/02 13:12:13;;;;;;;4.63;1.38;;;25.00;95.70;;;;;;5055137;28;20028;-80
2022/11/02 13:14:44;;;;;;;3.65;1.08;;;24.50;94.50;;;;;;5047784;28;20564;-81
2022/11/02 13:17:22;;;;;;;5.53;1.42;;;24.30;95.40;;;;;;5038479;28;20036;-80
2022/11/02 13:19:54;;;;;;;4.40;1.10;;;24.10;95.10;;;;;;5033904;28;20136;-80
2022/11/02 13:22:24;;;;;;;4.70;1.30;;;24.00;95.80;;;;;;5031553;28;20041;-80
2022/11/02 13:24:55;;;;;;;5.70;1.10;;;23.90;95.50;;;;;;5036239;28;20167;-80
2022/11/02 13:27:34;;;;;;;5.78;1.50;;;23.30;95.90;;;;;;5040798;28;20032;-81
2022/11/02 13:30:03;;;;;;;6.82;1.40;;;23.00;95.30;;;;;;5042107;28;20044;-80
2022/11/02 13:32:41;;;;;;;3.50;1.00;;;23.00;96.30;;;;;;5042012;28;20130;-81
2022/11/02 13:35:24;;;;;;;6.78;1.40;;;23.10;96.20;;;;;;5047066;28;20032;-81
2022/11/02 13:38:19;;;;;;;5.78;1.20;;;22.40;95.70;;;;;;5042646;28;20409;-82
2022/11/02 13:41:02;;;;;;;5.35;1.15;;;22.00;96.30;;;;;;5036649;28;20064;-80